createdAt,value
2024-02-02T00:00:06.523Z,18.95
2024-02-02T00:02:38.556Z,14.38
2024-02-02T00:05:06.442Z,16.60
2024-02-02T00:07:34.155Z,16.65
2024-02-02T00:10:01.718Z,18.23
2024-02-02T00:12:29.377Z,10.05
2024-02-02T00:14:58.980Z,15.48
2024-02-02T00:17:26.171Z,18.25
2024-02-02T00:19:53.140Z,15.80
2024-02-02T00:22:22.120Z,13.90
2024-02-02T00:24:49.155Z,18.88
2024-02-02T00:27:16.775Z,16.63
2024-02-02T00:29:46.876Z,23.27
2024-02-02T00:32:17.196Z,15.07
2024-02-02T00:34:44.293Z,18.05
2024-02-02T00:37:11.569Z,15.30
2024-02-02T00:39:39.305Z,17.48
2024-02-02T00:42:06.422Z,17.80
2024-02-02T00:44:33.413Z,11.82
2024-02-02T00:47:00.383Z,17.45
2024-02-02T00:49:27.545Z,16.05
2024-02-02T00:51:54.638Z,12.38
2024-02-02T00:54:21.926Z,20.15
2024-02-02T00:56:49.030Z,17.85
2024-02-02T00:59:16.292Z,13.68
2024-02-02T01:01:43.300Z,11.20
2024-02-02T01:04:10.271Z,16.98
2024-02-02T01:06:37.472Z,19.17
2024-02-02T01:09:05.120Z,18.88
2024-02-02T01:11:32.173Z,16.17
2024-02-02T01:13:59.250Z,17.42
2024-02-02T01:16:26.224Z,19.88
2024-02-02T01:18:53.563Z,14.20
2024-02-02T01:21:20.753Z,13.18
2024-02-02T01:23:49.102Z,19.55
2024-02-02T01:26:16.162Z,18.17
2024-02-02T01:28:43.157Z,16.15
2024-02-02T01:31:10.063Z,14.15
2024-02-02T01:33:37.371Z,12.15
2024-02-02T01:36:04.585Z,14.93
2024-02-02T01:38:31.789Z,20.58
2024-02-02T01:40:58.683Z,22.10
2024-02-02T01:43:27.329Z,16.00
2024-02-02T01:45:54.358Z,13.02
2024-02-02T01:48:21.975Z,17.23
2024-02-02T01:50:49.183Z,22.98
2024-02-02T01:53:16.441Z,15.45
2024-02-02T01:55:43.674Z,26.15
2024-02-02T01:58:11.422Z,19.45
2024-02-02T02:00:38.707Z,16.92
2024-02-02T02:03:06.161Z,17.20
2024-02-02T02:05:33.376Z,15.18
2024-02-02T02:08:01.477Z,13.95
2024-02-02T02:10:30.356Z,17.15
2024-02-02T02:12:57.684Z,16.30
2024-02-02T02:15:25.281Z,17.52
2024-02-02T02:17:53.229Z,16.23
2024-02-02T02:20:24.106Z,14.98
2024-02-02T02:22:51.224Z,14.70
2024-02-02T02:25:36.329Z,17.17
2024-02-02T02:28:03.959Z,20.55
2024-02-02T02:30:31.011Z,19.30
2024-02-02T02:32:58.957Z,18.95
2024-02-02T02:35:26.182Z,22.13
2024-02-02T02:37:54.187Z,17.73
2024-02-02T02:40:21.260Z,18.25
2024-02-02T02:42:51.551Z,18.15
2024-02-02T02:45:18.741Z,14.48
2024-02-02T02:47:46.144Z,16.10
2024-02-02T02:50:13.376Z,21.63
2024-02-02T02:52:40.399Z,19.98
2024-02-02T02:55:07.708Z,22.25
2024-02-02T02:57:34.804Z,27.38
2024-02-02T03:00:01.712Z,21.65
2024-02-02T03:02:29.064Z,12.90
2024-02-02T03:04:56.141Z,20.85
2024-02-02T03:07:23.190Z,22.27
2024-02-02T03:09:50.245Z,20.02
2024-02-02T03:12:17.402Z,18.75
2024-02-02T03:14:44.478Z,15.45
2024-02-02T03:17:11.489Z,14.10
2024-02-02T03:19:38.689Z,18.17
2024-02-02T03:22:05.700Z,14.07
2024-02-02T03:24:32.763Z,15.50
2024-02-02T03:26:59.846Z,17.40
2024-02-02T03:29:26.804Z,23.63
2024-02-02T03:31:54.109Z,16.15
2024-02-02T03:34:21.237Z,14.52
2024-02-02T03:36:48.392Z,18.35
2024-02-02T03:39:15.457Z,19.15
2024-02-02T03:41:43.554Z,22.30
2024-02-02T03:44:10.610Z,18.13
2024-02-02T03:46:37.648Z,19.17
2024-02-02T03:49:04.680Z,14.63
2024-02-02T03:51:31.772Z,24.15
2024-02-02T03:53:58.793Z,22.23
2024-02-02T03:56:25.753Z,21.40
2024-02-02T03:58:52.675Z,22.67
2024-02-02T04:01:21.444Z,17.58
2024-02-02T04:03:49.935Z,21.80
2024-02-02T04:06:17.255Z,15.77
2024-02-02T04:08:44.470Z,16.20
2024-02-02T04:11:11.616Z,21.02
2024-02-02T04:13:38.596Z,22.20
2024-02-02T04:16:06.425Z,24.33
2024-02-02T04:18:33.498Z,26.50
2024-02-02T04:21:00.609Z,15.85
2024-02-02T04:23:27.525Z,13.93
2024-02-02T04:25:54.522Z,15.93
2024-02-02T04:28:21.535Z,14.70
2024-02-02T04:30:48.674Z,26.33
2024-02-02T04:33:15.895Z,15.63
2024-02-02T04:35:43.038Z,18.25
2024-02-02T04:38:10.004Z,24.65
2024-02-02T04:40:36.966Z,14.70
2024-02-02T04:43:04.293Z,16.88
2024-02-02T04:45:31.428Z,23.42
2024-02-02T04:47:58.515Z,18.23
2024-02-02T04:50:26.904Z,20.08
2024-02-02T04:52:53.901Z,20.92
2024-02-02T04:55:20.905Z,21.88
2024-02-02T04:57:48.027Z,20.52
2024-02-02T05:00:15.830Z,28.08
2024-02-02T05:02:42.907Z,17.02
2024-02-02T05:05:10.216Z,17.23
2024-02-02T05:07:37.701Z,20.92
2024-02-02T05:10:08.201Z,20.10
2024-02-02T05:12:35.594Z,16.80
2024-02-02T05:15:03.696Z,20.95
2024-02-02T05:17:30.780Z,27.98
2024-02-02T05:19:58.145Z,15.60
2024-02-02T05:22:25.125Z,16.60
2024-02-02T05:24:52.073Z,12.38
2024-02-02T05:27:19.085Z,19.63
2024-02-02T05:29:46.043Z,21.98
2024-02-02T05:32:13.375Z,22.38
2024-02-02T05:34:42.101Z,19.00
2024-02-02T05:37:09.516Z,21.70
2024-02-02T05:39:41.090Z,23.45
2024-02-02T05:42:08.244Z,20.92
2024-02-02T05:44:35.278Z,20.65
2024-02-02T05:47:02.236Z,13.32
2024-02-02T05:49:29.445Z,19.63
2024-02-02T05:51:56.487Z,19.55
2024-02-02T05:54:23.734Z,17.45
2024-02-02T05:56:50.701Z,19.38
2024-02-02T05:59:17.757Z,21.48
2024-02-02T06:01:44.697Z,20.08
2024-02-02T06:04:12.212Z,19.13
2024-02-02T06:06:39.321Z,21.35
2024-02-02T06:09:06.500Z,17.92
2024-02-02T06:11:33.522Z,16.40
2024-02-02T06:14:00.503Z,18.45
2024-02-02T06:16:27.466Z,16.30
2024-02-02T06:18:55.589Z,17.33
2024-02-02T06:21:22.740Z,19.67
2024-02-02T06:23:49.797Z,16.98
2024-02-02T06:26:17.057Z,20.40
2024-02-02T06:28:44.192Z,20.50
2024-02-02T06:31:11.426Z,15.00
2024-02-02T06:33:38.452Z,17.77
2024-02-02T06:36:05.833Z,16.05
2024-02-02T06:38:32.836Z,19.48
2024-02-02T06:40:59.869Z,17.17
2024-02-02T06:43:26.783Z,20.15
2024-02-02T06:45:53.851Z,16.60
2024-02-02T06:48:22.571Z,19.75
2024-02-02T06:50:50.170Z,16.83
2024-02-02T06:53:17.468Z,21.95
2024-02-02T06:55:46.059Z,17.17
2024-02-02T06:58:42.919Z,24.58
2024-02-02T07:01:11.419Z,23.77
2024-02-02T07:03:39.276Z,20.35
2024-02-02T07:06:07.657Z,16.95
2024-02-02T07:08:34.851Z,22.00
2024-02-02T07:11:13.829Z,19.23
2024-02-02T07:13:50.842Z,18.15
2024-02-02T07:16:31.300Z,21.33
2024-02-02T07:18:58.792Z,19.52
2024-02-02T07:21:33.671Z,21.65
2024-02-02T07:24:01.374Z,27.35
2024-02-02T07:26:32.083Z,21.85
2024-02-02T07:28:59.891Z,22.38
2024-02-02T07:31:38.432Z,19.30
2024-02-02T07:34:46.184Z,22.58
2024-02-02T07:37:50.659Z,30.05
2024-02-02T07:41:04.353Z,19.02
2024-02-02T07:43:34.128Z,22.02
2024-02-02T07:46:03.584Z,16.92
2024-02-02T07:48:34.627Z,28.48
2024-02-02T07:51:02.418Z,22.60
2024-02-02T07:53:30.224Z,20.52
2024-02-02T07:55:57.454Z,27.25
2024-02-02T07:58:24.444Z,26.35
2024-02-02T08:00:53.101Z,22.13
2024-02-02T08:03:20.460Z,22.55
2024-02-02T08:05:48.240Z,22.33
2024-02-02T08:08:18.752Z,26.15
2024-02-02T08:10:48.624Z,19.77
2024-02-02T08:13:17.278Z,25.98
2024-02-02T08:15:44.598Z,22.10
2024-02-02T08:18:12.599Z,21.58
2024-02-02T08:20:39.901Z,21.27
2024-02-02T08:23:07.362Z,20.27
2024-02-02T08:25:35.278Z,20.52
2024-02-02T08:28:03.074Z,22.90
2024-02-02T08:30:30.335Z,18.13
2024-02-02T08:32:57.910Z,16.65
2024-02-02T08:35:26.926Z,16.77
2024-02-02T08:38:03.717Z,14.63
2024-02-02T08:40:43.708Z,14.95
2024-02-02T08:43:18.806Z,15.93
2024-02-02T08:46:11.784Z,20.08
2024-02-02T08:48:49.630Z,15.23
2024-02-02T08:51:23.145Z,16.30
2024-02-02T08:53:55.805Z,19.52
2024-02-02T08:56:22.933Z,15.15
2024-02-02T08:58:49.891Z,13.45
2024-02-02T09:01:43.732Z,18.92
2024-02-02T09:05:07.768Z,13.13
2024-02-02T09:07:35.074Z,17.75
2024-02-02T09:10:05.061Z,16.17
2024-02-02T09:12:35.213Z,13.88
2024-02-02T09:15:02.426Z,13.93
2024-02-02T09:17:31.744Z,12.80
2024-02-02T09:19:59.474Z,14.50
2024-02-02T09:22:28.293Z,18.17
2024-02-02T09:24:55.591Z,15.88
2024-02-02T09:27:33.855Z,13.57
2024-02-02T09:30:05.840Z,11.65
2024-02-02T09:32:32.940Z,14.18
2024-02-02T09:35:03.942Z,12.45
2024-02-02T09:37:52.232Z,13.20
2024-02-02T09:41:03.727Z,12.18
2024-02-02T09:43:58.375Z,11.63
2024-02-02T09:46:57.916Z,8.98
2024-02-02T09:49:53.740Z,13.00
2024-02-02T09:55:41.756Z,12.15
2024-02-02T09:59:01.641Z,14.73
2024-02-02T10:01:58.821Z,11.85
2024-02-02T10:04:59.542Z,9.73
2024-02-02T10:07:43.945Z,11.20
2024-02-02T10:10:23.578Z,10.10
2024-02-02T10:13:12.205Z,11.82
2024-02-02T10:16:02.475Z,13.23
2024-02-02T10:18:59.496Z,11.40
2024-02-02T10:21:48.920Z,12.95
2024-02-02T10:25:01.094Z,9.90
2024-02-02T10:27:40.080Z,8.95
2024-02-02T10:30:39.116Z,9.68
2024-02-02T10:33:30.169Z,8.25
2024-02-02T10:37:00.351Z,8.40
2024-02-02T10:39:58.143Z,6.72
2024-02-02T10:42:53.309Z,10.80
2024-02-02T10:45:47.765Z,9.77
2024-02-02T10:49:02.325Z,12.07
2024-02-02T10:52:00.271Z,12.07
2024-02-02T10:55:04.084Z,8.38
2024-02-02T10:57:47.809Z,10.52
2024-02-02T11:00:25.452Z,7.90
2024-02-02T11:03:18.045Z,9.25
2024-02-02T11:05:54.364Z,10.75
2024-02-02T11:08:24.821Z,8.90
2024-02-02T11:11:08.835Z,14.00
2024-02-02T11:13:56.851Z,10.35
2024-02-02T11:16:32.735Z,11.50
2024-02-02T11:19:38.418Z,11.68
2024-02-02T11:22:42.483Z,11.60
2024-02-02T11:25:48.626Z,9.43
2024-02-02T11:28:28.661Z,8.75
2024-02-02T11:31:30.719Z,7.63
2024-02-02T11:34:35.954Z,9.52
2024-02-02T11:37:38.524Z,7.68
2024-02-02T11:40:09.652Z,9.13
2024-02-02T11:42:41.798Z,9.55
2024-02-02T11:45:20.260Z,12.27
2024-02-02T11:48:02.974Z,9.02
2024-02-02T11:50:41.196Z,5.70
2024-02-02T11:54:01.969Z,5.47
2024-02-02T11:56:35.793Z,8.18
2024-02-02T11:59:13.608Z,5.10
2024-02-02T12:02:07.435Z,8.10
2024-02-02T12:05:04.021Z,10.05
2024-02-02T12:08:01.850Z,7.93
2024-02-02T12:10:31.009Z,8.55
2024-02-02T12:13:04.819Z,8.18
2024-02-02T12:15:32.106Z,10.60
2024-02-02T12:18:03.463Z,10.95
2024-02-02T12:20:32.305Z,7.28
2024-02-02T12:22:59.954Z,7.90
2024-02-02T12:25:28.923Z,6.95
2024-02-02T12:27:56.223Z,6.90
2024-02-02T12:30:23.460Z,8.75
2024-02-02T12:32:57.511Z,6.97
2024-02-02T12:35:26.670Z,8.45
2024-02-02T12:37:54.307Z,6.78
2024-02-02T12:40:21.571Z,7.75
2024-02-02T12:42:49.367Z,6.78
2024-02-02T12:45:17.751Z,7.75
2024-02-02T12:47:45.665Z,6.45
2024-02-02T12:50:19.404Z,7.75
2024-02-02T12:52:47.917Z,9.90
2024-02-02T12:55:15.771Z,6.72
2024-02-02T12:57:43.189Z,11.20
2024-02-02T13:00:17.291Z,8.35
2024-02-02T13:02:48.791Z,8.80
2024-02-02T13:05:19.189Z,7.68
2024-02-02T13:07:52.613Z,7.20
2024-02-02T13:10:45.085Z,6.78
2024-02-02T13:13:19.340Z,8.30
2024-02-02T13:15:47.378Z,5.17
2024-02-02T13:18:18.354Z,9.02
2024-02-02T13:20:53.363Z,8.18
2024-02-02T13:23:28.846Z,11.45
2024-02-02T13:25:59.989Z,10.70
2024-02-02T13:28:39.292Z,7.53
2024-02-02T13:31:20.361Z,8.63
2024-02-02T13:34:05.331Z,7.25
2024-02-02T13:36:33.612Z,9.23
2024-02-02T13:39:01.042Z,5.57
2024-02-02T13:41:32.293Z,6.30
2024-02-02T13:44:05.975Z,6.15
2024-02-02T13:46:33.888Z,4.50
2024-02-02T13:49:02.137Z,3.92
2024-02-02T13:51:30.835Z,8.70
2024-02-02T13:53:58.300Z,8.07
2024-02-02T13:56:28.152Z,10.25
2024-02-02T13:58:56.180Z,7.85
2024-02-02T14:01:28.745Z,8.65
2024-02-02T14:03:56.607Z,6.78
2024-02-02T14:06:24.976Z,5.63
2024-02-02T14:08:55.464Z,8.63
2024-02-02T14:11:28.353Z,5.82
2024-02-02T14:13:56.849Z,5.68
2024-02-02T14:16:25.826Z,4.75
2024-02-02T14:19:00.424Z,5.95
2024-02-02T14:21:30.986Z,7.95
2024-02-02T14:24:18.569Z,4.68
2024-02-02T14:27:02.414Z,3.97
2024-02-02T14:29:41.531Z,10.48
2024-02-02T14:32:09.752Z,8.45
2024-02-02T14:34:37.723Z,6.20
2024-02-02T14:37:05.144Z,8.68
2024-02-02T14:39:32.927Z,7.68
2024-02-02T14:42:01.172Z,9.18
2024-02-02T14:44:30.115Z,7.00
2024-02-02T14:46:57.636Z,8.00
2024-02-02T14:49:26.588Z,11.93
2024-02-02T14:51:54.887Z,8.15
2024-02-02T14:54:24.333Z,7.60
2024-02-02T14:56:52.786Z,5.30
2024-02-02T14:59:30.112Z,5.75
2024-02-02T15:01:57.819Z,10.48
2024-02-02T15:04:25.149Z,8.13
2024-02-02T15:06:52.828Z,6.22
2024-02-02T15:09:20.726Z,6.68
2024-02-02T15:11:47.927Z,8.63
2024-02-02T15:14:16.022Z,6.15
2024-02-02T15:16:43.177Z,7.30
2024-02-02T15:19:10.732Z,5.70
2024-02-02T15:21:37.944Z,9.43
2024-02-02T15:24:05.774Z,9.05
2024-02-02T15:26:39.917Z,8.50
2024-02-02T15:29:08.868Z,9.90
2024-02-02T15:31:35.866Z,11.77
2024-02-02T15:34:07.280Z,7.18
2024-02-02T15:36:36.113Z,8.45
2024-02-02T15:39:18.529Z,7.68
2024-02-02T15:41:53.354Z,8.70
2024-02-02T15:44:20.633Z,12.63
2024-02-02T15:46:47.748Z,6.30
2024-02-02T15:49:14.942Z,9.63
2024-02-02T15:51:42.059Z,7.93
2024-02-02T15:54:10.397Z,10.55
2024-02-02T15:56:37.616Z,8.55
2024-02-02T15:59:05.761Z,8.45
2024-02-02T16:01:32.792Z,7.97
2024-02-02T16:03:59.897Z,6.38
2024-02-02T16:06:26.937Z,8.65
2024-02-02T16:08:53.876Z,8.85
2024-02-02T16:11:20.846Z,12.35
2024-02-02T16:13:48.968Z,5.97
2024-02-02T16:16:16.021Z,12.52
2024-02-02T16:18:43.311Z,7.78
2024-02-02T16:21:12.371Z,10.63
2024-02-02T16:23:39.368Z,13.00
2024-02-02T16:26:06.329Z,9.63
2024-02-02T16:28:33.586Z,9.15
2024-02-02T16:31:06.002Z,9.07
2024-02-02T16:33:33.288Z,11.60
2024-02-02T16:36:00.542Z,9.50
2024-02-02T16:38:28.213Z,8.30
2024-02-02T16:40:55.198Z,9.30
2024-02-02T16:43:22.144Z,8.98
2024-02-02T16:45:50.701Z,8.02
2024-02-02T16:48:19.108Z,9.63
2024-02-02T16:50:46.736Z,8.13
2024-02-02T16:53:13.665Z,8.10
2024-02-02T16:55:41.488Z,13.25
2024-02-02T16:58:09.264Z,8.75
2024-02-02T17:00:36.353Z,12.93
2024-02-02T17:03:03.556Z,5.90
2024-02-02T17:05:30.601Z,7.30
2024-02-02T17:07:59.753Z,8.57
2024-02-02T17:10:26.771Z,6.93
2024-02-02T17:12:53.894Z,7.85
2024-02-02T17:15:21.256Z,9.85
2024-02-02T17:17:48.193Z,9.30
2024-02-02T17:20:18.992Z,7.15
2024-02-02T17:22:46.198Z,10.82
2024-02-02T17:25:13.403Z,8.13
2024-02-02T17:27:42.291Z,10.85
2024-02-02T17:30:10.328Z,9.52
2024-02-02T17:32:39.740Z,7.32
2024-02-02T17:35:09.399Z,10.23
2024-02-02T17:37:36.633Z,11.60
2024-02-02T17:40:04.884Z,11.13
2024-02-02T17:42:32.164Z,9.02
2024-02-02T17:44:59.215Z,11.18
2024-02-02T17:47:26.208Z,9.85
2024-02-02T17:49:56.629Z,11.15
2024-02-02T17:52:25.056Z,9.45
2024-02-02T17:54:52.132Z,9.68
2024-02-02T17:57:21.929Z,9.43
2024-02-02T17:59:48.917Z,9.90
2024-02-02T18:02:16.155Z,12.60
2024-02-02T18:07:32.596Z,9.50
2024-02-02T18:10:08.274Z,10.07
2024-02-02T18:12:38.750Z,9.50
2024-02-02T18:15:08.594Z,7.82
2024-02-02T18:17:36.126Z,8.68
2024-02-02T18:20:04.894Z,13.43
2024-02-02T18:22:32.022Z,10.95
2024-02-02T18:24:58.915Z,9.07
2024-02-02T18:27:26.022Z,12.00
2024-02-02T18:29:53.451Z,11.05
2024-02-02T18:32:21.398Z,7.60
2024-02-02T18:34:49.265Z,8.07
2024-02-02T18:37:16.664Z,8.40
2024-02-02T18:39:43.636Z,9.35
2024-02-02T18:42:10.767Z,10.18
2024-02-02T18:44:37.726Z,6.43
2024-02-02T18:47:05.216Z,7.72
2024-02-02T18:49:32.312Z,6.88
2024-02-02T18:51:59.401Z,10.15
2024-02-02T18:54:27.003Z,9.30
2024-02-02T18:56:54.059Z,7.72
2024-02-02T18:59:21.064Z,8.15
2024-02-02T19:01:48.295Z,9.35
2024-02-02T19:04:15.429Z,10.15
2024-02-02T19:06:42.818Z,7.65
2024-02-02T19:09:10.105Z,10.65
2024-02-02T19:11:40.321Z,9.75
2024-02-02T19:14:42.027Z,7.82
2024-02-02T19:17:16.102Z,10.35
2024-02-02T19:19:48.702Z,8.40
2024-02-02T19:22:18.530Z,7.85
2024-02-02T19:24:48.867Z,8.00
2024-02-02T19:27:16.902Z,6.63
2024-02-02T19:29:43.926Z,8.50
2024-02-02T19:32:14.091Z,8.70
2024-02-02T19:34:42.266Z,9.38
2024-02-02T19:37:09.602Z,7.72
2024-02-02T19:39:36.745Z,7.97
2024-02-02T19:42:04.410Z,7.05
2024-02-02T19:44:31.611Z,8.93
2024-02-02T19:46:58.760Z,8.77
2024-02-02T19:49:26.205Z,7.45
2024-02-02T19:51:53.290Z,5.28
2024-02-02T19:54:20.636Z,8.38
2024-02-02T19:56:47.748Z,9.05
2024-02-02T19:59:16.089Z,10.18
2024-02-02T20:01:49.371Z,9.45
2024-02-02T20:04:16.590Z,9.98
2024-02-02T20:06:45.591Z,8.63
2024-02-02T20:09:15.074Z,5.03
2024-02-02T20:11:42.145Z,8.18
2024-02-02T20:14:09.245Z,8.07
2024-02-02T20:16:36.223Z,8.20
2024-02-02T20:19:03.303Z,7.22
2024-02-02T20:21:30.604Z,12.50
2024-02-02T20:23:57.932Z,9.43
2024-02-02T20:26:25.770Z,9.57
2024-02-02T20:28:57.824Z,7.20
2024-02-02T20:31:24.865Z,6.45
2024-02-02T20:33:56.451Z,8.27
2024-02-02T20:36:27.844Z,8.35
2024-02-02T20:38:55.183Z,5.47
2024-02-02T20:41:28.048Z,7.72
2024-02-02T20:43:55.773Z,10.13
2024-02-02T20:46:22.946Z,7.38
2024-02-02T20:48:50.421Z,7.60
2024-02-02T20:51:17.959Z,8.68
2024-02-02T20:53:45.296Z,5.90
2024-02-02T20:56:12.671Z,6.78
2024-02-02T20:58:39.689Z,11.25
2024-02-02T21:01:07.045Z,5.88
2024-02-02T21:03:34.905Z,9.63
2024-02-02T21:06:02.340Z,8.65
2024-02-02T21:08:29.583Z,13.07
2024-02-02T21:10:56.895Z,8.43
2024-02-02T21:13:23.972Z,6.72
2024-02-02T21:15:51.206Z,8.90
2024-02-02T21:18:18.514Z,6.82
2024-02-02T21:20:50.676Z,6.93
2024-02-02T21:23:19.192Z,7.95
2024-02-02T21:25:46.928Z,7.85
2024-02-02T21:28:15.549Z,8.40
2024-02-02T21:30:44.604Z,8.18
2024-02-02T21:33:12.084Z,6.97
2024-02-02T21:35:39.489Z,8.05
2024-02-02T21:38:06.723Z,10.68
2024-02-02T21:40:33.780Z,10.75
2024-02-02T21:43:00.703Z,8.63
2024-02-02T21:45:28.691Z,8.15
2024-02-02T21:47:55.808Z,7.93
2024-02-02T21:50:23.071Z,10.05
2024-02-02T21:52:50.086Z,9.82
2024-02-02T21:55:17.233Z,12.43
2024-02-02T21:57:44.497Z,10.20
2024-02-02T22:00:14.110Z,11.75
2024-02-02T22:02:41.517Z,10.02
2024-02-02T22:05:08.738Z,10.05
2024-02-02T22:07:38.248Z,9.13
2024-02-02T22:10:06.244Z,8.93
2024-02-02T22:12:33.241Z,10.90
2024-02-02T22:15:00.237Z,18.52
2024-02-02T22:17:27.894Z,9.90
2024-02-02T22:19:54.991Z,9.23
2024-02-02T22:22:21.975Z,9.68
2024-02-02T22:24:49.020Z,11.02
2024-02-02T22:27:20.385Z,10.30
2024-02-02T22:29:48.956Z,11.02
2024-02-02T22:32:19.490Z,15.68
2024-02-02T22:34:47.381Z,12.85
2024-02-02T22:37:15.603Z,15.13
2024-02-02T22:39:42.881Z,7.95
2024-02-02T22:42:10.033Z,9.32
2024-02-02T22:44:37.079Z,12.98
2024-02-02T22:47:04.333Z,10.85
2024-02-02T22:49:33.135Z,10.45
2024-02-02T22:52:00.517Z,8.77
2024-02-02T22:54:27.675Z,10.48
2024-02-02T22:56:54.829Z,8.38
2024-02-02T22:59:21.893Z,11.43
2024-02-02T23:01:48.982Z,12.90
2024-02-02T23:04:16.130Z,12.65
2024-02-02T23:06:43.250Z,12.75
2024-02-02T23:09:10.391Z,12.00
2024-02-02T23:11:37.595Z,11.07
2024-02-02T23:14:05.108Z,11.05
2024-02-02T23:16:32.075Z,11.02
2024-02-02T23:18:59.337Z,10.02
2024-02-02T23:21:26.351Z,12.18
2024-02-02T23:23:53.247Z,9.18
2024-02-02T23:26:20.593Z,10.38
2024-02-02T23:28:47.914Z,9.65
2024-02-02T23:31:15.370Z,9.23
2024-02-02T23:33:43.475Z,9.80
2024-02-02T23:36:11.036Z,14.90
2024-02-02T23:38:38.014Z,12.18
2024-02-02T23:41:05.153Z,8.50
2024-02-02T23:43:34.075Z,13.93
2024-02-02T23:46:01.482Z,11.73
2024-02-02T23:48:29.193Z,11.82
2024-02-02T23:50:56.268Z,10.05
2024-02-02T23:53:23.318Z,11.95
2024-02-02T23:55:50.350Z,10.35
2024-02-02T23:58:18.137Z,10.50
